createdAt,value
2019-05-25T00:01:32.414Z,13.43
2019-05-25T00:04:20.268Z,13.73
2019-05-25T00:07:08.165Z,16.33
2019-05-25T00:09:56.076Z,15.07
2019-05-25T00:12:43.785Z,15.83
2019-05-25T00:15:31.895Z,14.00
2019-05-25T00:18:19.761Z,13.47
2019-05-25T00:21:07.718Z,16.10
2019-05-25T00:24:10.857Z,13.90
2019-05-25T00:26:45.454Z,13.57
2019-05-25T00:29:33.197Z,12.13
2019-05-25T00:32:20.928Z,12.33
2019-05-25T00:35:08.690Z,14.17
2019-05-25T00:37:56.852Z,13.27
2019-05-25T00:40:44.503Z,13.90
2019-05-25T00:43:32.460Z,16.17
2019-05-25T00:46:20.071Z,13.27
2019-05-25T00:49:08.010Z,14.77
2019-05-25T00:51:55.701Z,13.53
2019-05-25T00:54:43.645Z,14.07
2019-05-25T00:57:31.233Z,14.00
2019-05-25T01:00:19.408Z,13.83
2019-05-25T01:03:06.878Z,13.77
2019-05-25T01:05:54.548Z,16.73
2019-05-25T01:08:42.344Z,16.73
2019-05-25T01:11:30.352Z,15.03
2019-05-25T01:14:18.312Z,15.73
2019-05-25T01:17:05.868Z,17.40
2019-05-25T01:19:53.985Z,20.30
2019-05-25T01:22:41.768Z,17.50
2019-05-25T01:25:29.724Z,19.70
2019-05-25T01:28:17.764Z,19.83
2019-05-25T01:31:06.069Z,18.13
2019-05-25T01:33:54.201Z,17.87
2019-05-25T01:36:42.052Z,17.10
2019-05-25T01:39:29.816Z,15.83
2019-05-25T01:42:17.836Z,17.47
2019-05-25T01:45:06.729Z,19.60
2019-05-25T01:47:54.279Z,15.57
2019-05-25T01:50:42.069Z,18.00
2019-05-25T01:53:29.913Z,16.77
2019-05-25T01:56:17.818Z,17.57
2019-05-25T01:59:05.630Z,17.43
2019-05-25T02:01:53.754Z,14.00
2019-05-25T02:04:41.705Z,13.80
2019-05-25T02:07:29.737Z,16.47
2019-05-25T02:10:17.449Z,15.20
2019-05-25T02:13:05.473Z,17.53
2019-05-25T02:15:53.273Z,19.40
2019-05-25T02:18:41.120Z,15.43
2019-05-25T02:21:28.945Z,14.93
2019-05-25T02:24:16.720Z,13.90
2019-05-25T02:27:04.681Z,16.43
2019-05-25T02:29:52.383Z,14.13
2019-05-25T02:32:40.187Z,16.10
2019-05-25T02:35:28.567Z,14.50
2019-05-25T02:38:16.323Z,16.93
2019-05-25T02:41:04.063Z,16.23
2019-05-25T02:43:51.701Z,16.07
2019-05-25T02:50:27.819Z,14.77
2019-05-25T02:53:15.497Z,13.87
2019-05-25T02:56:03.149Z,16.63
2019-05-25T02:58:51.289Z,15.97
2019-05-25T03:01:39.078Z,16.23
2019-05-25T03:04:26.801Z,23.43
2019-05-25T03:07:14.925Z,20.33
2019-05-25T03:10:04.674Z,19.63
2019-05-25T03:12:53.473Z,17.10
2019-05-25T03:15:41.440Z,18.80
2019-05-25T03:18:29.256Z,16.73
2019-05-25T03:21:17.297Z,19.50
2019-05-25T03:24:05.507Z,18.30
2019-05-25T03:26:53.457Z,21.20
2019-05-25T03:29:41.113Z,20.50
2019-05-25T03:32:28.792Z,17.43
2019-05-25T03:35:16.966Z,16.33
2019-05-25T03:38:04.971Z,17.33
2019-05-25T03:40:52.760Z,21.53
2019-05-25T03:43:40.665Z,18.97
2019-05-25T03:46:28.514Z,27.80
2019-05-25T03:49:16.078Z,34.13
2019-05-25T03:52:03.898Z,23.43
2019-05-25T03:54:51.457Z,20.67
2019-05-25T03:57:39.706Z,23.63
2019-05-25T04:00:35.749Z,19.77
2019-05-25T04:03:23.344Z,20.70
2019-05-25T04:06:10.965Z,21.73
2019-05-25T04:08:58.865Z,21.57
2019-05-25T04:11:46.865Z,20.40
2019-05-25T04:14:34.996Z,23.83
2019-05-25T04:17:22.602Z,20.60
2019-05-25T04:20:10.670Z,17.30
2019-05-25T04:22:58.708Z,19.27
2019-05-25T04:25:46.777Z,13.23
2019-05-25T04:28:34.505Z,14.80
2019-05-25T04:31:22.380Z,13.60
2019-05-25T04:34:10.224Z,15.57
2019-05-25T04:36:58.033Z,16.07
2019-05-25T04:39:46.313Z,17.17
2019-05-25T04:42:34.421Z,17.93
2019-05-25T04:45:22.066Z,15.43
2019-05-25T04:48:10.054Z,19.13
2019-05-25T04:50:57.661Z,14.33
2019-05-25T04:53:45.238Z,13.90
2019-05-25T04:56:39.463Z,18.20
2019-05-25T04:59:23.053Z,16.20
2019-05-25T05:02:10.766Z,16.20
2019-05-25T05:04:58.641Z,12.63
2019-05-25T05:07:46.263Z,13.63
2019-05-25T05:10:34.421Z,18.83
2019-05-25T05:13:22.397Z,13.27
2019-05-25T05:16:10.410Z,16.87
2019-05-25T05:18:58.105Z,17.53
2019-05-25T05:21:46.109Z,15.23
2019-05-25T05:24:33.734Z,12.57
2019-05-25T05:27:21.415Z,15.90
2019-05-25T05:30:10.001Z,12.77
2019-05-25T05:32:57.641Z,13.97
2019-05-25T05:35:46.817Z,15.17
2019-05-25T05:38:35.736Z,14.17
2019-05-25T05:41:25.073Z,14.33
2019-05-25T05:44:14.469Z,12.40
2019-05-25T05:47:03.965Z,14.73
2019-05-25T05:49:53.605Z,16.13
2019-05-25T05:52:41.556Z,19.27
2019-05-25T05:55:31.409Z,10.70
2019-05-25T05:58:18.955Z,13.70
2019-05-25T06:01:07.065Z,12.73
2019-05-25T06:03:54.954Z,12.63
2019-05-25T06:06:42.557Z,15.87
2019-05-25T06:09:30.461Z,15.40
2019-05-25T06:12:18.349Z,14.57
2019-05-25T06:15:06.871Z,16.47
2019-05-25T06:17:54.614Z,15.53
2019-05-25T06:20:42.612Z,15.43
2019-05-25T06:23:30.740Z,14.00
2019-05-25T06:26:18.622Z,14.93
2019-05-25T06:29:06.502Z,14.77
2019-05-25T06:31:54.125Z,12.80
2019-05-25T06:34:41.981Z,14.97
2019-05-25T06:37:29.861Z,15.63
2019-05-25T06:40:18.594Z,11.17
2019-05-25T06:43:06.246Z,15.00
2019-05-25T06:45:54.034Z,13.17
2019-05-25T06:48:41.870Z,15.40
2019-05-25T06:51:29.473Z,11.93
2019-05-25T06:54:17.273Z,16.30
2019-05-25T06:57:05.129Z,17.97
2019-05-25T06:59:52.880Z,12.40
2019-05-25T07:02:40.772Z,12.93
2019-05-25T07:05:28.425Z,11.50
2019-05-25T07:08:16.352Z,12.53
2019-05-25T07:11:04.133Z,13.33
2019-05-25T07:13:52.238Z,12.53
2019-05-25T07:16:39.855Z,13.73
2019-05-25T07:19:27.882Z,15.57
2019-05-25T07:22:15.855Z,13.07
2019-05-25T07:25:06.485Z,12.17
2019-05-25T07:27:59.674Z,14.23
2019-05-25T07:30:46.611Z,14.27
2019-05-25T07:33:33.743Z,13.80
2019-05-25T07:36:21.445Z,12.10
2019-05-25T07:39:09.414Z,13.30
2019-05-25T07:41:57.406Z,13.03
2019-05-25T07:44:45.355Z,12.07
2019-05-25T07:47:33.155Z,12.03
2019-05-25T07:50:21.123Z,19.90
2019-05-25T07:53:08.840Z,14.03
2019-05-25T07:55:56.713Z,11.83
2019-05-25T07:58:44.483Z,12.00
2019-05-25T08:01:32.165Z,13.17
2019-05-25T08:04:39.398Z,12.80
2019-05-25T08:07:27.074Z,13.43
2019-05-25T08:10:15.334Z,11.43
2019-05-25T08:13:03.229Z,11.43
2019-05-25T08:15:51.167Z,11.10
2019-05-25T08:18:38.789Z,15.40
2019-05-25T08:21:26.797Z,15.23
2019-05-25T08:24:14.661Z,14.23
2019-05-25T08:27:02.511Z,12.77
2019-05-25T08:29:50.480Z,11.73
2019-05-25T08:32:38.262Z,12.03
2019-05-25T08:35:26.089Z,11.57
2019-05-25T08:38:13.944Z,9.47
2019-05-25T08:41:01.653Z,11.50
2019-05-25T08:43:49.740Z,11.00
2019-05-25T08:46:37.549Z,9.63
2019-05-25T08:49:25.475Z,9.03
2019-05-25T08:52:13.333Z,12.37
2019-05-25T08:55:01.433Z,14.13
2019-05-25T08:57:49.877Z,9.73
2019-05-25T09:00:37.676Z,10.33
2019-05-25T09:03:25.570Z,12.37
2019-05-25T09:06:13.429Z,11.13
2019-05-25T09:09:01.283Z,14.60
2019-05-25T09:11:48.941Z,11.93
2019-05-25T09:14:36.672Z,13.07
2019-05-25T09:17:24.638Z,11.60
2019-05-25T09:20:13.042Z,10.90
2019-05-25T09:23:00.741Z,11.93
2019-05-25T09:25:48.809Z,10.73
2019-05-25T09:28:36.586Z,11.37
2019-05-25T09:31:24.237Z,8.53
2019-05-25T09:34:12.213Z,11.07
2019-05-25T09:37:00.258Z,9.13
2019-05-25T09:39:47.859Z,9.83
2019-05-25T09:42:36.449Z,9.10
2019-05-25T09:45:24.405Z,9.07
2019-05-25T09:48:11.957Z,8.80
2019-05-25T09:50:59.980Z,10.60
2019-05-25T09:53:47.975Z,9.23
2019-05-25T09:56:35.994Z,9.83
2019-05-25T09:59:23.950Z,10.70
2019-05-25T10:02:11.586Z,10.10
2019-05-25T10:04:59.266Z,10.10
2019-05-25T10:07:47.025Z,9.30
2019-05-25T10:10:35.125Z,9.50
2019-05-25T10:13:23.130Z,10.97
2019-05-25T10:16:11.034Z,8.93
2019-05-25T10:18:58.870Z,10.03
2019-05-25T10:21:46.878Z,8.93
2019-05-25T10:24:34.777Z,10.83
2019-05-25T10:27:22.501Z,9.83
2019-05-25T10:30:11.103Z,9.27
2019-05-25T10:32:58.693Z,8.37
2019-05-25T10:35:46.605Z,10.73
2019-05-25T10:38:34.232Z,9.60
2019-05-25T10:41:21.840Z,9.27
2019-05-25T10:44:09.621Z,8.93
2019-05-25T10:46:57.328Z,10.33
2019-05-25T10:49:45.106Z,8.40
2019-05-25T10:52:33.090Z,8.60
2019-05-25T10:55:20.972Z,8.90
2019-05-25T10:58:08.489Z,9.27
2019-05-25T11:00:56.413Z,9.17
2019-05-25T11:03:44.439Z,9.97
2019-05-25T11:06:34.847Z,7.40
2019-05-25T11:09:21.897Z,8.50
2019-05-25T11:12:10.005Z,11.67
2019-05-25T11:14:57.657Z,8.63
2019-05-25T11:17:45.605Z,10.83
2019-05-25T11:20:33.326Z,10.43
2019-05-25T11:23:21.266Z,9.00
2019-05-25T11:26:08.930Z,9.13
2019-05-25T11:28:57.042Z,9.33
2019-05-25T11:31:54.037Z,10.77
2019-05-25T11:34:34.324Z,9.77
2019-05-25T11:37:22.102Z,9.37
2019-05-25T11:40:11.989Z,7.03
2019-05-25T11:43:00.043Z,7.50
2019-05-25T11:45:47.678Z,7.83
2019-05-25T11:48:35.462Z,6.00
2019-05-25T11:51:23.112Z,5.80
2019-05-25T11:54:11.157Z,7.40
2019-05-25T11:56:58.769Z,4.90
2019-05-25T11:59:46.392Z,5.70
2019-05-25T12:02:34.470Z,7.27
2019-05-25T12:05:22.597Z,6.20
2019-05-25T12:08:10.304Z,6.00
2019-05-25T12:10:58.343Z,7.10
2019-05-25T12:13:46.486Z,7.10
2019-05-25T12:16:34.330Z,7.43
2019-05-25T12:19:21.965Z,7.93
2019-05-25T12:22:09.717Z,7.67
2019-05-25T12:24:57.421Z,7.23
2019-05-25T12:27:48.835Z,6.40
2019-05-25T12:30:40.715Z,7.47
2019-05-25T12:33:24.525Z,8.50
2019-05-25T12:36:12.679Z,6.67
2019-05-25T12:39:00.794Z,8.03
2019-05-25T12:41:48.755Z,8.67
2019-05-25T12:44:36.486Z,7.10
2019-05-25T12:47:24.550Z,7.27
2019-05-25T12:50:13.177Z,7.30
2019-05-25T12:53:00.859Z,7.73
2019-05-25T12:55:48.805Z,7.23
2019-05-25T12:58:36.469Z,6.73
2019-05-25T13:01:24.609Z,7.87
2019-05-25T13:04:12.238Z,7.37
2019-05-25T13:07:00.089Z,8.67
2019-05-25T13:09:47.982Z,7.80
2019-05-25T13:12:36.269Z,8.87
2019-05-25T13:15:24.113Z,7.97
2019-05-25T13:18:12.049Z,9.13
2019-05-25T13:20:59.996Z,9.53
2019-05-25T13:23:47.777Z,8.70
2019-05-25T13:26:35.668Z,11.10
2019-05-25T13:29:23.375Z,14.03
2019-05-25T13:32:11.163Z,14.33
2019-05-25T13:34:58.946Z,13.20
2019-05-25T13:37:46.695Z,16.27
2019-05-25T13:40:34.358Z,17.30
2019-05-25T13:43:22.078Z,18.37
2019-05-25T13:46:10.109Z,16.20
2019-05-25T13:48:57.909Z,15.70
2019-05-25T13:51:46.142Z,14.53
2019-05-25T13:54:34.016Z,15.90
2019-05-25T13:57:22.205Z,17.00
2019-05-25T14:00:11.246Z,18.03
2019-05-25T14:02:58.864Z,17.33
2019-05-25T14:05:46.728Z,17.73
2019-05-25T14:08:34.901Z,17.63
2019-05-25T14:11:22.786Z,10.20
2019-05-25T14:14:10.509Z,7.47
2019-05-25T14:16:58.439Z,9.50
2019-05-25T14:19:46.614Z,10.70
2019-05-25T14:22:34.615Z,8.37
2019-05-25T14:25:22.234Z,8.60
2019-05-25T14:28:10.634Z,8.30
2019-05-25T14:30:58.546Z,9.80
2019-05-25T14:33:46.658Z,8.60
2019-05-25T14:36:35.878Z,7.27
2019-05-25T14:39:23.849Z,5.60
2019-05-25T14:42:11.786Z,6.10
2019-05-25T14:44:59.767Z,5.10
2019-05-25T14:47:47.618Z,5.70
2019-05-25T14:50:35.717Z,6.63
2019-05-25T14:53:24.884Z,5.47
2019-05-25T14:56:12.713Z,5.30
2019-05-25T14:59:00.702Z,13.87
2019-05-25T15:02:01.405Z,6.00
2019-05-25T15:04:38.123Z,5.60
2019-05-25T15:07:26.237Z,5.47
2019-05-25T15:10:14.585Z,6.00
2019-05-25T15:13:02.312Z,6.73
2019-05-25T15:15:50.141Z,5.27
2019-05-25T15:18:38.333Z,3.97
2019-05-25T15:21:26.468Z,4.77
2019-05-25T15:24:14.993Z,5.07
2019-05-25T15:27:03.001Z,4.83
2019-05-25T15:29:50.899Z,4.50
2019-05-25T15:32:38.734Z,4.47
2019-05-25T15:35:26.506Z,4.60
2019-05-25T15:38:14.221Z,4.50
2019-05-25T15:41:02.238Z,4.90
2019-05-25T15:43:50.002Z,6.40
2019-05-25T15:46:38.120Z,4.57
2019-05-25T15:49:33.358Z,6.43
2019-05-25T15:52:15.374Z,5.87
2019-05-25T15:55:04.786Z,4.83
2019-05-25T15:57:52.601Z,4.50
2019-05-25T16:00:45.850Z,4.50
2019-05-25T16:03:33.583Z,5.20
2019-05-25T16:06:23.844Z,5.83
2019-05-25T16:09:10.956Z,5.47
2019-05-25T16:11:58.954Z,5.13
2019-05-25T16:14:46.663Z,6.00
2019-05-25T16:17:34.697Z,5.43
2019-05-25T16:20:23.215Z,7.27
2019-05-25T16:23:11.086Z,5.50
2019-05-25T16:25:58.713Z,5.93
2019-05-25T16:28:46.594Z,5.77
2019-05-25T16:31:34.213Z,5.20
2019-05-25T16:34:22.051Z,5.30
2019-05-25T16:37:10.146Z,7.43
2019-05-25T16:39:58.133Z,5.83
2019-05-25T16:42:46.069Z,7.00
2019-05-25T16:45:34.023Z,6.43
2019-05-25T16:48:21.829Z,6.43
2019-05-25T16:51:09.761Z,7.97
2019-05-25T16:53:57.668Z,9.97
2019-05-25T16:56:45.268Z,7.17
2019-05-25T16:59:33.127Z,7.20
2019-05-25T17:02:21.125Z,6.13
2019-05-25T17:05:09.501Z,6.57
2019-05-25T17:07:57.870Z,7.03
2019-05-25T17:10:45.695Z,6.00
2019-05-25T17:13:33.478Z,6.60
2019-05-25T17:16:21.534Z,6.10
2019-05-25T17:19:09.086Z,5.60
2019-05-25T17:21:56.784Z,6.00
2019-05-25T17:24:44.645Z,5.97
2019-05-25T17:27:32.703Z,4.63
2019-05-25T17:30:41.201Z,5.00
2019-05-25T17:33:44.800Z,4.47
2019-05-25T17:36:20.306Z,5.23
2019-05-25T17:39:08.957Z,5.20
2019-05-25T17:41:56.700Z,4.27
2019-05-25T17:44:44.670Z,5.10
2019-05-25T17:47:32.741Z,5.30
2019-05-25T17:50:20.598Z,4.40
2019-05-25T17:53:08.261Z,3.70
2019-05-25T17:55:55.909Z,4.90
2019-05-25T17:58:43.728Z,3.90
2019-05-25T18:01:31.605Z,4.07
2019-05-25T18:04:19.474Z,4.33
2019-05-25T18:07:07.602Z,4.37
2019-05-25T18:09:55.442Z,6.20
2019-05-25T18:12:46.576Z,4.27
2019-05-25T18:15:32.626Z,4.70
2019-05-25T18:18:20.285Z,4.83
2019-05-25T18:21:08.002Z,4.40
2019-05-25T18:23:55.845Z,4.63
2019-05-25T18:26:43.671Z,5.37
2019-05-25T18:29:31.737Z,4.70
2019-05-25T18:32:19.603Z,5.77
2019-05-25T18:35:07.805Z,5.47
2019-05-25T18:37:55.754Z,6.50
2019-05-25T18:40:44.535Z,6.27
2019-05-25T18:43:32.522Z,5.53
2019-05-25T18:46:20.261Z,6.27
2019-05-25T18:49:08.294Z,7.53
2019-05-25T18:51:56.153Z,6.70
2019-05-25T18:54:44.229Z,7.63
2019-05-25T18:57:31.906Z,6.57
2019-05-25T19:00:20.532Z,7.07
2019-05-25T19:03:08.156Z,10.17
2019-05-25T19:05:56.228Z,18.90
2019-05-25T19:08:43.918Z,18.17
2019-05-25T19:11:35.677Z,13.73
2019-05-25T19:14:21.537Z,12.73
2019-05-25T19:17:09.493Z,15.30
2019-05-25T19:19:57.378Z,14.87
2019-05-25T19:22:45.191Z,11.60
2019-05-25T19:25:33.101Z,9.73
2019-05-25T19:28:21.253Z,8.43
2019-05-25T19:31:08.941Z,8.27
2019-05-25T19:33:56.618Z,8.07
2019-05-25T19:36:44.522Z,9.13
2019-05-25T19:39:32.816Z,9.57
2019-05-25T19:42:20.847Z,12.00
2019-05-25T19:45:09.291Z,11.20
2019-05-25T19:47:56.896Z,10.17
2019-05-25T19:50:44.974Z,10.20
2019-05-25T19:53:32.837Z,10.03
2019-05-25T19:56:20.510Z,9.50
2019-05-25T19:59:08.464Z,9.27
2019-05-25T20:01:56.601Z,9.83
2019-05-25T20:04:44.679Z,11.13
2019-05-25T20:07:32.584Z,9.30
2019-05-25T20:10:20.734Z,10.13
2019-05-25T20:13:08.546Z,10.23
2019-05-25T20:15:56.481Z,10.30
2019-05-25T20:18:44.387Z,9.30
2019-05-25T20:21:32.165Z,10.77
2019-05-25T20:24:20.326Z,9.83
2019-05-25T20:27:08.093Z,10.27
2019-05-25T20:29:55.674Z,12.10
2019-05-25T20:32:43.670Z,11.23
2019-05-25T20:35:33.592Z,11.33
2019-05-25T20:38:21.604Z,12.63
2019-05-25T20:41:09.483Z,21.03
2019-05-25T20:43:57.109Z,20.03
2019-05-25T20:46:45.022Z,16.97
2019-05-25T20:49:33.095Z,17.00
2019-05-25T20:52:20.718Z,14.97
2019-05-25T20:55:08.659Z,14.40
2019-05-25T20:57:56.662Z,16.07
2019-05-25T21:00:44.583Z,17.03
2019-05-25T21:03:32.423Z,19.83
2019-05-25T21:06:20.345Z,18.47
2019-05-25T21:09:08.428Z,18.77
2019-05-25T21:11:56.486Z,22.73
2019-05-25T21:14:44.613Z,22.63
2019-05-25T21:17:32.441Z,21.13
2019-05-25T21:20:20.469Z,22.10
2019-05-25T21:23:08.345Z,20.67
2019-05-25T21:25:56.225Z,21.87
2019-05-25T21:28:44.129Z,21.30
2019-05-25T21:31:32.060Z,18.33
2019-05-25T21:34:19.673Z,18.13
2019-05-25T21:37:07.287Z,14.33
2019-05-25T21:39:54.982Z,13.53
2019-05-25T21:42:42.872Z,17.13
2019-05-25T21:45:30.781Z,15.87
2019-05-25T21:48:18.679Z,15.30
2019-05-25T21:51:06.450Z,15.50
2019-05-25T21:53:54.530Z,15.53
2019-05-25T21:56:42.195Z,16.83
2019-05-25T21:59:32.560Z,17.37
2019-05-25T22:02:19.278Z,21.77
2019-05-25T22:05:07.754Z,18.27
2019-05-25T22:07:55.336Z,18.33
2019-05-25T22:10:43.125Z,20.00
2019-05-25T22:13:30.895Z,21.27
2019-05-25T22:16:18.825Z,22.87
2019-05-25T22:19:06.653Z,23.17
2019-05-25T22:21:54.505Z,18.47
2019-05-25T22:24:42.390Z,17.87
2019-05-25T22:27:30.097Z,18.60
2019-05-25T22:30:19.212Z,17.93
2019-05-25T22:33:07.114Z,17.97
2019-05-25T22:35:56.246Z,17.07
2019-05-25T22:38:44.302Z,15.13
2019-05-25T22:41:33.362Z,15.57
2019-05-25T22:44:21.246Z,17.60
2019-05-25T22:47:08.955Z,19.60
2019-05-25T22:49:57.052Z,17.03
2019-05-25T22:52:44.921Z,16.73
2019-05-25T22:55:32.921Z,17.67
2019-05-25T22:58:20.925Z,17.30
2019-05-25T23:01:08.894Z,19.60
2019-05-25T23:03:56.910Z,19.30
2019-05-25T23:06:57.216Z,18.30
2019-05-25T23:09:34.798Z,16.13
2019-05-25T23:12:22.550Z,16.87
2019-05-25T23:15:11.110Z,18.87
2019-05-25T23:17:58.664Z,18.60
2019-05-25T23:20:46.317Z,16.23
2019-05-25T23:23:34.225Z,16.50
2019-05-25T23:26:22.232Z,17.23
2019-05-25T23:29:10.041Z,21.60
2019-05-25T23:31:57.961Z,17.90
2019-05-25T23:34:45.797Z,16.93
2019-05-25T23:37:33.921Z,18.30
2019-05-25T23:40:21.894Z,19.07
2019-05-25T23:43:09.560Z,17.00
2019-05-25T23:45:57.543Z,18.47
2019-05-25T23:48:45.596Z,17.30
2019-05-25T23:51:33.379Z,18.67
2019-05-25T23:54:21.205Z,17.40
2019-05-25T23:57:09.211Z,19.83
2019-05-25T23:59:57.094Z,20.17
